Williamson, Illinois
Current Conditions -  °F | °C
As of 5:55 PM on Saturday 22 Nov 2014 (Local Time) from K3LF Reporting Station
Scattered Clouds Scattered Clouds  
Wind Chill: 44°   Ceiling: Unl
Heat Index: 49°   Visibility: 10mi
Dew Point: 46°   Wind: 13mph
Humidity: 90%   Direction: 180°S
Pressure: 29.95"   Gusts: NA
Location:  39.0218°N, 89.7604°W
Report Text: K3LF 222355Z AUTO 18011KT 10SM SCT025 SCT085 10/08 A2995 RMK AO2 T00960080 10125 20096
Loading
Personal Weather Stations






























Interactive Weather Map New forecast layout! Learn more

10-Day Weather Forecast

Advertisements
Track Severe Weather on mobile